createdAt,value
2019-01-13T00:02:20.797Z,0.86
2019-01-13T00:04:46.661Z,0.85
2019-01-13T00:07:12.513Z,0.80
2019-01-13T00:09:38.413Z,0.67
2019-01-13T00:12:04.288Z,0.77
2019-01-13T00:14:30.187Z,0.50
2019-01-13T00:16:56.147Z,0.49
2019-01-13T00:19:22.008Z,0.33
2019-01-13T00:21:47.894Z,0.46
2019-01-13T00:24:13.752Z,0.36
2019-01-13T00:26:39.670Z,0.32
2019-01-13T00:29:05.539Z,0.41
2019-01-13T00:31:31.441Z,0.42
2019-01-13T00:33:57.306Z,0.27
2019-01-13T00:36:23.198Z,0.16
2019-01-13T00:38:49.074Z,0.36
2019-01-13T00:41:14.974Z,0.24
2019-01-13T00:43:40.958Z,0.24
2019-01-13T00:46:06.802Z,-0.16
2019-01-13T00:48:32.724Z,-0.23
2019-01-13T00:50:58.616Z,-0.06
2019-01-13T00:53:24.560Z,-0.25
2019-01-13T00:55:51.009Z,0.33
2019-01-13T00:58:16.835Z,0.33
2019-01-13T01:00:42.732Z,0.09
2019-01-13T01:03:08.717Z,0.07
2019-01-13T01:05:34.575Z,-0.17
2019-01-13T01:08:00.472Z,-0.19
2019-01-13T01:10:26.344Z,-0.12
2019-01-13T01:12:52.210Z,-0.20
2019-01-13T01:15:18.176Z,-0.21
2019-01-13T01:17:44.053Z,-0.24
2019-01-13T01:20:12.754Z,-0.21
2019-01-13T01:22:38.636Z,-0.20
2019-01-13T01:25:06.105Z,-0.22
2019-01-13T01:27:31.973Z,-0.40
2019-01-13T01:29:57.859Z,-0.46
2019-01-13T01:32:23.730Z,-0.40
2019-01-13T01:34:49.602Z,-0.62
2019-01-13T01:37:15.493Z,-0.51
2019-01-13T01:39:41.370Z,-0.35
2019-01-13T01:42:07.225Z,-0.25
2019-01-13T01:44:33.096Z,-0.40
2019-01-13T01:46:58.970Z,-0.28
2019-01-13T01:49:24.882Z,-0.20
2019-01-13T01:51:50.767Z,-0.23
2019-01-13T01:54:16.862Z,-0.29
2019-01-13T01:56:43.094Z,-0.45
2019-01-13T01:59:08.943Z,-0.36
2019-01-13T02:01:34.836Z,-0.33
2019-01-13T02:04:00.682Z,-0.31
2019-01-13T02:06:26.658Z,-0.34
2019-01-13T02:08:52.548Z,-0.40
2019-01-13T02:11:18.469Z,-0.33
2019-01-13T02:13:44.411Z,-0.34
2019-01-13T02:16:12.186Z,-0.31
2019-01-13T02:18:38.100Z,-0.32
2019-01-13T02:21:03.959Z,-0.42
2019-01-13T02:23:29.822Z,-0.35
2019-01-13T02:25:55.708Z,-0.47
2019-01-13T02:28:21.764Z,-0.50
2019-01-13T02:30:49.237Z,-0.55
2019-01-13T02:33:15.441Z,-0.52
2019-01-13T02:35:41.305Z,-0.61
2019-01-13T02:38:07.309Z,-0.73
2019-01-13T02:40:33.295Z,-0.60
2019-01-13T02:42:59.152Z,-0.61
2019-01-13T02:45:25.918Z,-0.72
2019-01-13T02:47:51.930Z,-0.81
2019-01-13T02:50:17.821Z,-0.62
2019-01-13T02:52:43.688Z,-0.39
2019-01-13T02:55:09.711Z,-0.30
2019-01-13T02:57:36.391Z,-0.26
2019-01-13T03:00:06.269Z,-0.50
2019-01-13T03:02:32.165Z,-0.46
2019-01-13T03:04:58.019Z,-0.48
2019-01-13T03:07:23.903Z,-0.38
2019-01-13T03:09:49.789Z,-0.42
2019-01-13T03:12:15.658Z,-0.37
2019-01-13T03:14:41.546Z,-0.51
2019-01-13T03:17:07.424Z,-0.54
2019-01-13T03:19:33.321Z,-0.56
2019-01-13T03:21:59.166Z,-0.49
2019-01-13T03:24:25.036Z,-0.53
2019-01-13T03:26:51.061Z,-0.72
2019-01-13T03:29:16.931Z,-0.70
2019-01-13T03:31:42.958Z,-0.73
2019-01-13T03:34:08.881Z,-0.65
2019-01-13T03:36:34.744Z,-0.61
2019-01-13T03:39:00.646Z,-0.56
2019-01-13T03:41:26.632Z,-0.54
2019-01-13T03:43:52.502Z,-0.73
2019-01-13T03:46:18.402Z,-0.67
2019-01-13T03:48:44.377Z,-0.79
2019-01-13T03:51:10.248Z,-0.66
2019-01-13T03:53:36.141Z,-0.63
2019-01-13T03:56:02.060Z,-0.54
2019-01-13T03:58:28.818Z,-0.77
2019-01-13T04:00:54.718Z,-0.64
2019-01-13T04:03:20.693Z,-0.56
2019-01-13T04:05:46.591Z,-0.99
2019-01-13T04:08:12.544Z,-0.99
2019-01-13T04:10:38.418Z,-0.74
2019-01-13T04:13:04.310Z,-0.64
2019-01-13T04:15:39.351Z,-0.86
2019-01-13T04:18:05.239Z,-0.72
2019-01-13T04:20:31.247Z,-1.07
2019-01-13T04:22:57.140Z,-0.79
2019-01-13T04:25:22.992Z,-0.90
2019-01-13T04:27:48.859Z,-1.09
2019-01-13T04:30:14.725Z,-1.01
2019-01-13T04:32:40.604Z,-1.02
2019-01-13T04:35:06.816Z,-1.01
2019-01-13T04:37:32.714Z,-0.85
2019-01-13T04:39:58.577Z,-0.93
2019-01-13T04:42:24.460Z,-0.69
2019-01-13T04:44:50.338Z,-0.88
2019-01-13T04:47:16.225Z,-0.94
2019-01-13T04:49:42.083Z,-0.94
2019-01-13T04:52:07.967Z,-0.90
2019-01-13T04:54:33.858Z,-0.73
2019-01-13T04:56:59.783Z,-0.80
2019-01-13T04:59:26.363Z,-0.89
2019-01-13T05:01:52.272Z,-0.87
2019-01-13T05:04:18.127Z,-1.03
2019-01-13T05:06:44.103Z,-1.03
2019-01-13T05:09:10.105Z,-0.86
2019-01-13T05:11:35.980Z,-0.79
2019-01-13T05:14:01.845Z,-0.86
2019-01-13T05:16:27.715Z,-0.90
2019-01-13T05:18:53.579Z,-1.12
2019-01-13T05:21:19.463Z,-1.02
2019-01-13T05:23:45.329Z,-0.88
2019-01-13T05:26:11.219Z,-0.97
2019-01-13T05:28:37.093Z,-0.93
2019-01-13T05:31:02.950Z,-1.02
2019-01-13T05:33:28.844Z,-1.22
2019-01-13T05:35:54.735Z,-1.05
2019-01-13T05:38:20.598Z,-1.11
2019-01-13T05:40:46.482Z,-1.00
2019-01-13T05:43:12.475Z,-0.96
2019-01-13T05:45:38.376Z,-0.94
2019-01-13T05:48:04.373Z,-1.03
2019-01-13T05:50:30.242Z,-1.05
2019-01-13T05:52:56.445Z,-1.16
2019-01-13T05:55:22.814Z,-0.97
2019-01-13T05:57:48.723Z,-1.06
2019-01-13T06:00:17.184Z,-1.19
2019-01-13T06:02:43.053Z,-1.14
2019-01-13T06:05:08.907Z,-1.00
2019-01-13T06:07:34.762Z,-0.93
2019-01-13T06:10:00.638Z,-1.17
2019-01-13T06:12:26.531Z,-1.15
2019-01-13T06:14:52.427Z,-0.91
2019-01-13T06:17:18.302Z,-0.99
2019-01-13T06:19:44.156Z,-1.15
2019-01-13T06:22:10.028Z,-1.06
2019-01-13T06:24:35.896Z,-0.81
2019-01-13T06:27:01.775Z,-0.82
2019-01-13T06:29:27.874Z,-0.67
2019-01-13T06:31:56.397Z,-0.82
2019-01-13T06:34:21.544Z,-0.90
2019-01-13T06:36:47.465Z,-0.80
2019-01-13T06:39:13.321Z,-0.97
2019-01-13T06:41:39.195Z,-0.96
2019-01-13T06:44:05.056Z,-0.75
2019-01-13T06:46:30.929Z,-0.94
2019-01-13T06:48:58.183Z,-0.87
2019-01-13T06:51:24.054Z,-1.04
2019-01-13T06:53:50.028Z,-1.23
2019-01-13T06:56:15.982Z,-0.97
2019-01-13T06:58:41.893Z,-0.97
2019-01-13T07:01:08.736Z,-0.96
2019-01-13T07:03:34.586Z,-1.06
2019-01-13T07:06:00.457Z,-1.13
2019-01-13T07:08:26.310Z,-1.19
2019-01-13T07:10:52.172Z,-1.24
2019-01-13T07:13:18.041Z,-1.25
2019-01-13T07:15:43.916Z,-1.28
2019-01-13T07:18:09.807Z,-1.45
2019-01-13T07:20:35.717Z,-1.41
2019-01-13T07:23:01.617Z,-1.32
2019-01-13T07:25:27.454Z,-1.25
2019-01-13T07:27:53.316Z,-1.32
2019-01-13T07:30:22.169Z,-1.23
2019-01-13T07:32:48.298Z,-1.07
2019-01-13T07:35:14.204Z,-1.04
2019-01-13T07:37:40.061Z,-1.12
2019-01-13T07:40:12.545Z,-1.34
2019-01-13T07:42:38.414Z,-1.32
2019-01-13T07:45:07.886Z,-1.11
2019-01-13T07:47:33.739Z,-1.21
2019-01-13T07:49:59.634Z,-1.25
2019-01-13T07:52:25.516Z,-0.99
2019-01-13T07:54:51.588Z,-1.08
2019-01-13T07:57:17.560Z,-0.89
2019-01-13T07:59:43.461Z,-1.07
2019-01-13T08:02:10.219Z,-1.12
2019-01-13T08:04:36.064Z,-1.12
2019-01-13T08:07:01.932Z,-0.98
2019-01-13T08:09:27.814Z,-0.97
2019-01-13T08:11:54.045Z,-0.75
2019-01-13T08:14:19.930Z,-0.71
2019-01-13T08:16:45.837Z,-0.70
2019-01-13T08:19:11.699Z,-0.65
2019-01-13T08:21:37.563Z,-0.66
2019-01-13T08:24:03.424Z,-0.57
2019-01-13T08:26:29.326Z,-0.53
2019-01-13T08:28:55.187Z,-0.35
2019-01-13T08:31:21.051Z,-0.28
2019-01-13T08:33:46.939Z,-0.10
2019-01-13T08:36:12.836Z,0.01
2019-01-13T08:38:38.698Z,0.25
2019-01-13T08:41:04.604Z,0.27
2019-01-13T08:43:30.448Z,0.51
2019-01-13T08:45:56.328Z,0.51
2019-01-13T08:48:22.170Z,0.60
2019-01-13T08:50:48.019Z,0.83
2019-01-13T08:53:13.882Z,0.63
2019-01-13T08:55:39.753Z,0.34
2019-01-13T08:58:05.621Z,0.44
2019-01-13T09:00:31.532Z,0.67
2019-01-13T09:02:58.098Z,0.67
2019-01-13T09:05:23.997Z,0.89
2019-01-13T09:07:49.863Z,1.06
2019-01-13T09:10:17.427Z,1.22
2019-01-13T09:12:43.288Z,1.46
2019-01-13T09:15:12.248Z,1.64
2019-01-13T09:17:38.132Z,1.76
2019-01-13T09:20:07.818Z,1.84
2019-01-13T09:22:33.801Z,1.98
2019-01-13T09:24:59.785Z,2.07
2019-01-13T09:27:25.668Z,2.19
2019-01-13T09:29:51.516Z,2.22
2019-01-13T09:32:17.371Z,2.28
2019-01-13T09:34:43.244Z,2.60
2019-01-13T09:37:09.124Z,2.67
2019-01-13T09:39:35.013Z,2.72
2019-01-13T09:42:00.881Z,2.90
2019-01-13T09:44:26.743Z,2.99
2019-01-13T09:46:52.631Z,3.14
2019-01-13T09:49:18.491Z,3.26
2019-01-13T09:51:44.448Z,3.30
2019-01-13T09:54:10.322Z,3.18
2019-01-13T09:56:36.184Z,3.23
2019-01-13T09:59:02.049Z,3.50
2019-01-13T10:01:27.993Z,3.69
2019-01-13T10:03:54.890Z,3.84
2019-01-13T10:06:20.766Z,3.86
2019-01-13T10:08:46.629Z,3.79
2019-01-13T10:11:12.536Z,3.85
2019-01-13T10:13:38.389Z,3.98
2019-01-13T10:16:04.246Z,4.17
2019-01-13T10:18:30.113Z,4.19
2019-01-13T10:20:56.152Z,4.27
2019-01-13T10:23:22.209Z,4.47
2019-01-13T10:25:48.058Z,4.47
2019-01-13T10:28:13.932Z,4.59
2019-01-13T10:30:39.846Z,4.58
2019-01-13T10:33:05.737Z,4.70
2019-01-13T10:35:31.590Z,4.77
2019-01-13T10:37:57.469Z,5.09
2019-01-13T10:40:26.973Z,5.53
2019-01-13T10:42:52.828Z,5.64
2019-01-13T10:45:18.821Z,5.97
2019-01-13T10:51:12.152Z,5.52
2019-01-13T10:53:38.064Z,5.54
2019-01-13T10:56:03.932Z,5.68
2019-01-13T10:58:29.785Z,5.64
2019-01-13T11:00:55.671Z,5.65
2019-01-13T11:03:21.849Z,5.52
2019-01-13T11:05:48.219Z,5.90
2019-01-13T11:08:14.143Z,5.83
2019-01-13T11:10:40.069Z,5.72
2019-01-13T11:13:05.943Z,5.67
2019-01-13T11:15:31.804Z,5.65
2019-01-13T11:17:57.660Z,5.37
2019-01-13T11:20:32.356Z,5.39
2019-01-13T11:22:58.368Z,5.44
2019-01-13T11:25:24.273Z,5.50
2019-01-13T11:27:50.140Z,5.39
2019-01-13T11:30:18.082Z,5.51
2019-01-13T11:32:43.926Z,5.49
2019-01-13T11:35:12.525Z,5.63
2019-01-13T11:37:38.412Z,5.49
2019-01-13T11:40:10.643Z,5.62
2019-01-13T11:42:36.503Z,5.76
2019-01-13T11:45:04.304Z,5.88
2019-01-13T11:47:30.180Z,5.85
2019-01-13T11:49:56.068Z,5.94
2019-01-13T11:52:21.942Z,5.91
2019-01-13T11:54:47.826Z,6.04
2019-01-13T11:57:14.105Z,5.90
2019-01-13T11:59:40.086Z,6.11
2019-01-13T12:02:06.016Z,6.31
2019-01-13T12:04:31.911Z,6.36
2019-01-13T12:06:58.511Z,6.34
2019-01-13T12:09:24.474Z,6.41
2019-01-13T12:11:50.358Z,6.52
2019-01-13T12:14:16.319Z,6.62
2019-01-13T12:16:42.557Z,6.75
2019-01-13T12:19:08.398Z,6.92
2019-01-13T12:21:34.292Z,6.95
2019-01-13T12:24:00.199Z,7.18
2019-01-13T12:26:26.081Z,7.11
2019-01-13T12:28:52.080Z,7.28
2019-01-13T12:31:17.942Z,7.38
2019-01-13T12:33:43.866Z,7.34
2019-01-13T12:36:09.761Z,7.44
2019-01-13T12:38:35.625Z,7.52
2019-01-13T12:41:01.507Z,7.70
2019-01-13T12:43:27.423Z,7.99
2019-01-13T12:45:53.292Z,7.92
2019-01-13T12:48:19.193Z,8.35
2019-01-13T12:50:45.195Z,8.50
2019-01-13T12:53:11.055Z,8.66
2019-01-13T12:55:36.977Z,8.74
2019-01-13T12:58:06.708Z,8.28
2019-01-13T13:00:32.580Z,8.82
2019-01-13T13:02:58.442Z,10.25
2019-01-13T13:05:24.340Z,11.07
2019-01-13T13:07:51.484Z,13.15
2019-01-13T13:10:26.724Z,12.30
2019-01-13T13:12:52.711Z,11.26
2019-01-13T13:15:18.621Z,12.04
2019-01-13T13:17:45.367Z,14.23
2019-01-13T13:20:15.064Z,13.59
2019-01-13T13:22:40.947Z,13.12
2019-01-13T13:25:08.804Z,11.10
2019-01-13T13:27:34.679Z,10.63
2019-01-13T13:30:00.549Z,9.94
2019-01-13T13:32:26.448Z,9.40
2019-01-13T13:34:52.398Z,8.87
2019-01-13T13:37:18.271Z,8.82
2019-01-13T13:39:44.138Z,8.84
2019-01-13T13:42:10.068Z,8.62
2019-01-13T13:44:35.885Z,8.25
2019-01-13T13:47:01.779Z,8.15
2019-01-13T13:49:28.031Z,7.78
2019-01-13T13:51:54.009Z,8.21
2019-01-13T13:54:19.955Z,7.81
2019-01-13T13:56:45.922Z,7.98
2019-01-13T13:59:11.947Z,7.98
2019-01-13T14:01:37.814Z,8.14
2019-01-13T14:04:03.799Z,7.98
2019-01-13T14:06:29.695Z,7.95
2019-01-13T14:08:56.639Z,7.59
2019-01-13T14:11:22.567Z,7.74
2019-01-13T14:13:48.540Z,8.15
2019-01-13T14:16:14.544Z,8.37
2019-01-13T14:18:40.410Z,7.97
2019-01-13T14:21:06.310Z,7.62
2019-01-13T14:23:32.174Z,7.58
2019-01-13T14:26:00.041Z,7.39
2019-01-13T14:28:25.945Z,7.32
2019-01-13T14:30:51.825Z,7.48
2019-01-13T14:33:17.738Z,7.58
2019-01-13T14:35:43.715Z,7.51
2019-01-13T14:38:09.603Z,7.34
2019-01-13T14:40:35.490Z,7.23
2019-01-13T14:43:01.374Z,7.00
2019-01-13T14:45:27.272Z,6.95
2019-01-13T14:47:53.164Z,6.85
2019-01-13T14:50:21.044Z,7.06
2019-01-13T14:52:47.537Z,6.99
2019-01-13T14:55:13.916Z,6.72
2019-01-13T14:57:39.787Z,6.91
2019-01-13T15:00:11.381Z,6.91
2019-01-13T15:02:37.252Z,6.66
2019-01-13T15:05:06.278Z,6.61
2019-01-13T15:07:32.324Z,6.61
2019-01-13T15:09:58.946Z,6.67
2019-01-13T15:12:24.992Z,6.60
2019-01-13T15:14:51.038Z,6.34
2019-01-13T15:17:16.918Z,6.32
2019-01-13T15:19:42.891Z,6.23
2019-01-13T15:22:08.824Z,6.18
2019-01-13T15:24:34.728Z,6.13
2019-01-13T15:27:00.591Z,5.98
2019-01-13T15:29:26.498Z,5.96
2019-01-13T15:31:52.391Z,5.92
2019-01-13T15:34:18.321Z,5.84
2019-01-13T15:36:44.185Z,5.70
2019-01-13T15:39:10.059Z,5.65
2019-01-13T15:41:35.991Z,5.57
2019-01-13T15:44:01.915Z,5.47
2019-01-13T15:46:27.789Z,5.29
2019-01-13T15:48:53.644Z,5.31
2019-01-13T15:51:19.551Z,5.19
2019-01-13T15:53:45.513Z,5.12
2019-01-13T15:56:11.401Z,5.03
2019-01-13T15:58:37.262Z,4.79
2019-01-13T16:01:03.165Z,4.90
2019-01-13T16:03:29.046Z,4.85
2019-01-13T16:05:54.928Z,4.91
2019-01-13T16:08:20.821Z,4.86
2019-01-13T16:10:47.028Z,4.74
2019-01-13T16:13:12.941Z,4.67
2019-01-13T16:15:38.838Z,4.74
2019-01-13T16:18:04.725Z,4.66
2019-01-13T16:20:32.691Z,4.57
2019-01-13T16:22:58.599Z,4.50
2019-01-13T16:25:24.478Z,4.28
2019-01-13T16:27:50.355Z,4.18
2019-01-13T16:30:27.563Z,4.15
2019-01-13T16:32:53.459Z,3.89
2019-01-13T16:35:19.349Z,3.89
2019-01-13T16:37:45.351Z,4.13
2019-01-13T16:40:13.236Z,4.04
2019-01-13T16:42:39.140Z,4.12
2019-01-13T16:45:08.153Z,4.01
2019-01-13T16:47:34.012Z,3.84
2019-01-13T16:49:59.903Z,3.92
2019-01-13T16:52:25.774Z,4.08
2019-01-13T16:54:51.679Z,3.94
2019-01-13T16:57:17.670Z,4.06
2019-01-13T16:59:43.555Z,3.95
2019-01-13T17:02:09.426Z,3.69
2019-01-13T17:04:35.420Z,3.79
2019-01-13T17:07:01.313Z,3.87
2019-01-13T17:09:27.295Z,3.77
2019-01-13T17:11:53.466Z,3.82
2019-01-13T17:14:19.381Z,3.64
2019-01-13T17:16:45.243Z,3.64
2019-01-13T17:19:11.110Z,3.80
2019-01-13T17:21:36.974Z,3.77
2019-01-13T17:24:02.842Z,3.61
2019-01-13T17:26:28.694Z,3.51
2019-01-13T17:28:54.611Z,3.32
2019-01-13T17:31:20.503Z,3.22
2019-01-13T17:33:46.376Z,3.18
2019-01-13T17:36:12.260Z,3.27
2019-01-13T17:38:38.153Z,3.49
2019-01-13T17:41:04.051Z,3.42
2019-01-13T17:43:29.930Z,3.35
2019-01-13T17:45:55.803Z,3.46
2019-01-13T17:48:21.667Z,3.35
2019-01-13T17:50:47.516Z,3.19
2019-01-13T17:53:13.376Z,3.17
2019-01-13T17:55:39.248Z,2.96
2019-01-13T17:58:05.233Z,3.26
2019-01-13T18:00:37.405Z,3.29
2019-01-13T18:03:06.388Z,3.03
2019-01-13T18:05:32.272Z,2.98
2019-01-13T18:07:58.440Z,3.08
2019-01-13T18:10:24.791Z,3.17
2019-01-13T18:12:51.495Z,3.06
2019-01-13T18:15:17.376Z,2.95
2019-01-13T18:17:43.263Z,3.16
2019-01-13T18:20:12.786Z,3.21
2019-01-13T18:22:38.665Z,3.33
2019-01-13T18:25:04.541Z,3.43
2019-01-13T18:27:30.409Z,3.53
2019-01-13T18:29:56.268Z,3.47
2019-01-13T18:32:22.157Z,3.57
2019-01-13T18:34:50.352Z,3.62
2019-01-13T18:37:15.938Z,3.56
2019-01-13T18:39:41.813Z,3.59
2019-01-13T18:42:08.066Z,3.30
2019-01-13T18:44:34.039Z,3.10
2019-01-13T18:46:59.936Z,3.39
2019-01-13T18:49:25.929Z,3.48
2019-01-13T18:51:51.809Z,3.54
2019-01-13T18:54:18.102Z,3.47
2019-01-13T18:56:44.020Z,3.05
2019-01-13T18:59:09.875Z,3.05
2019-01-13T19:01:35.782Z,3.18
2019-01-13T19:04:01.738Z,3.26
2019-01-13T19:06:27.613Z,3.32
2019-01-13T19:08:53.500Z,3.26
2019-01-13T19:11:19.401Z,3.00
2019-01-13T19:14:01.173Z,2.88
2019-01-13T19:16:30.136Z,3.05
2019-01-13T19:18:56.354Z,3.08
2019-01-13T19:21:22.237Z,3.21
2019-01-13T19:23:48.098Z,2.92
2019-01-13T19:26:14.004Z,2.96
2019-01-13T19:28:39.885Z,2.93
2019-01-13T19:31:05.769Z,2.72
2019-01-13T19:33:31.655Z,2.69
2019-01-13T19:35:57.534Z,2.65
2019-01-13T19:38:23.505Z,2.69
2019-01-13T19:40:49.422Z,2.72
2019-01-13T19:43:15.349Z,2.94
2019-01-13T19:45:41.207Z,3.01
2019-01-13T19:48:07.089Z,2.93
2019-01-13T19:50:32.964Z,2.85
2019-01-13T19:53:00.457Z,2.94
2019-01-13T19:55:26.608Z,3.02
2019-01-13T19:57:52.581Z,3.06
2019-01-13T20:00:27.261Z,3.29
2019-01-13T20:02:53.120Z,3.06
2019-01-13T20:05:19.093Z,2.92
2019-01-13T20:07:45.349Z,2.94
2019-01-13T20:10:12.731Z,2.98
2019-01-13T20:12:38.635Z,2.86
2019-01-13T20:15:09.123Z,2.76
2019-01-13T20:17:35.296Z,2.81
2019-01-13T20:20:01.689Z,2.80
2019-01-13T20:22:27.584Z,2.90
2019-01-13T20:24:53.461Z,2.81
2019-01-13T20:27:19.439Z,2.91
2019-01-13T20:29:45.538Z,2.85
2019-01-13T20:32:11.435Z,2.94
2019-01-13T20:34:37.584Z,2.96
2019-01-13T20:37:03.659Z,2.84
2019-01-13T20:39:29.835Z,2.74
2019-01-13T20:41:55.838Z,2.56
2019-01-13T20:44:21.999Z,2.86
2019-01-13T20:46:47.894Z,2.82
2019-01-13T20:49:14.127Z,2.56
2019-01-13T20:51:40.259Z,2.51
2019-01-13T20:54:07.923Z,2.38
2019-01-13T20:56:34.264Z,2.40
2019-01-13T20:59:00.261Z,2.37
2019-01-13T21:01:26.311Z,2.31
2019-01-13T21:03:52.954Z,2.55
2019-01-13T21:06:18.964Z,2.57
2019-01-13T21:08:44.834Z,2.72
2019-01-13T21:11:11.979Z,2.42
2019-01-13T21:13:37.931Z,2.16
2019-01-13T21:16:04.854Z,2.32
2019-01-13T21:18:30.740Z,2.47
2019-01-13T21:20:57.017Z,2.23
2019-01-13T21:23:22.920Z,2.01
2019-01-13T21:25:48.825Z,2.01
2019-01-13T21:28:15.041Z,2.23
2019-01-13T21:30:40.999Z,2.14
2019-01-13T21:33:06.866Z,2.10
2019-01-13T21:35:34.006Z,2.32
2019-01-13T21:38:00.769Z,2.63
2019-01-13T21:40:26.852Z,2.55
2019-01-13T21:42:52.732Z,2.43
2019-01-13T21:45:22.496Z,2.66
2019-01-13T21:47:48.452Z,2.46
2019-01-13T21:50:17.423Z,2.27
2019-01-13T21:52:43.299Z,2.24
2019-01-13T21:55:11.185Z,2.19
2019-01-13T21:57:37.087Z,2.05
2019-01-13T22:00:08.046Z,2.12
2019-01-13T22:02:34.049Z,1.91
2019-01-13T22:04:59.936Z,1.76
2019-01-13T22:07:25.798Z,1.81
2019-01-13T22:09:51.665Z,1.85
2019-01-13T22:12:17.543Z,1.70
2019-01-13T22:14:43.480Z,1.94
2019-01-13T22:17:09.633Z,1.84
2019-01-13T22:19:35.519Z,1.88
2019-01-13T22:22:01.506Z,1.71
2019-01-13T22:24:27.388Z,1.60
2019-01-13T22:26:53.269Z,1.71
2019-01-13T22:29:19.285Z,1.68
2019-01-13T22:31:45.173Z,1.98
2019-01-13T22:34:11.107Z,1.85
2019-01-13T22:36:37.048Z,1.81
2019-01-13T22:39:07.752Z,1.64
2019-01-13T22:41:33.862Z,1.74
2019-01-13T22:43:59.733Z,1.81
2019-01-13T22:46:25.689Z,1.84
2019-01-13T22:48:51.598Z,1.92
2019-01-13T22:51:17.450Z,1.87
2019-01-13T22:53:43.338Z,2.03
2019-01-13T22:56:09.261Z,1.92
2019-01-13T22:58:35.128Z,1.93
2019-01-13T23:01:12.836Z,1.97
2019-01-13T23:03:38.802Z,2.04
2019-01-13T23:06:04.640Z,2.12
2019-01-13T23:08:30.482Z,2.29
2019-01-13T23:10:56.387Z,2.32
2019-01-13T23:13:22.258Z,2.63
2019-01-13T23:15:48.170Z,2.42
2019-01-13T23:18:14.680Z,2.44
2019-01-13T23:20:40.677Z,2.40
2019-01-13T23:23:06.542Z,2.60
2019-01-13T23:25:32.412Z,2.64
2019-01-13T23:27:58.423Z,2.55
2019-01-13T23:30:24.314Z,2.61
2019-01-13T23:32:50.243Z,2.61
2019-01-13T23:35:16.117Z,2.61
2019-01-13T23:37:42.120Z,2.58
2019-01-13T23:40:08.033Z,2.88
2019-01-13T23:42:34.007Z,2.88
2019-01-13T23:44:59.869Z,2.94
2019-01-13T23:47:25.769Z,2.85
2019-01-13T23:49:51.612Z,2.69
2019-01-13T23:52:17.502Z,2.66
2019-01-13T23:54:43.397Z,2.66
2019-01-13T23:57:09.269Z,2.55
2019-01-13T23:59:35.260Z,2.70
